Time;durP1;ratioP1;P1;durP2;ratioP2;P2;SDS_P1;SDS_P2;PMS_P1;PMS_P2;Temp;Humidity;BMP_temperature;BMP_pressure;BME280_temperature;BME280_humidity;BME280_pressure;Samples;Min_cycle;Max_cycle;Signal;HPM_P1;HPM_P2
2022/01/28 00:04:51;;;;;;;0.00;0.00;;;4.40;99.90;;;;;;5115689;28;20478;-89
2022/01/28 00:07:17;;;;;;;2.05;0.57;;;4.40;99.90;;;;;;5116323;28;20148;-89
2022/01/28 00:09:43;;;;;;;0.00;0.00;;;4.40;99.90;;;;;;5099205;28;20495;-89
2022/01/28 00:12:10;;;;;;;0.00;0.00;;;4.50;99.90;;;;;;5098952;28;20047;-88
2022/01/28 00:38:44;;;;;;;0.00;0.00;;;4.60;99.90;;;;;;5115516;28;20134;-89
2022/01/28 00:41:14;;;;;;;1.85;0.93;;;4.40;99.90;;;;;;5098413;28;20463;-88
2022/01/28 00:43:39;;;;;;;0.00;0.00;;;4.40;99.90;;;;;;5098138;28;20092;-88
2022/01/28 00:46:05;;;;;;;0.00;0.00;;;4.30;99.90;;;;;;5098379;28;20051;-89
2022/01/28 00:48:31;;;;;;;0.00;0.00;;;4.30;99.90;;;;;;5098488;28;20093;-89
2022/01/28 00:50:57;;;;;;;4.47;0.57;;;4.30;99.90;;;;;;5098273;28;20083;-89
2022/01/28 00:53:22;;;;;;;0.00;0.00;;;4.30;99.90;;;;;;5115231;28;20106;-89
2022/01/28 00:55:48;;;;;;;3.53;0.35;;;4.30;99.90;;;;;;5097966;28;20535;-88
2022/01/28 00:58:14;;;;;;;0.20;0.20;;;4.30;99.90;;;;;;5097940;28;20134;-88
2022/01/28 01:00:40;;;;;;;0.00;0.00;;;4.20;99.90;;;;;;5098061;28;20047;-89
2022/01/28 01:03:06;;;;;;;7.80;1.20;;;4.20;99.90;;;;;;5097611;28;20471;-88
2022/01/28 01:05:34;;;;;;;0.00;0.00;;;4.30;99.90;;;;;;5114978;28;20045;-88
2022/01/28 01:08:01;;;;;;;0.00;0.00;;;4.30;99.90;;;;;;5097701;28;20054;-89
2022/01/28 01:10:27;;;;;;;0.00;0.00;;;4.40;99.90;;;;;;5097956;28;20043;-88
2022/01/28 01:12:54;;;;;;;0.00;0.00;;;4.40;99.90;;;;;;5114668;28;20039;-89
2022/01/28 01:15:24;;;;;;;6.32;2.00;;;4.30;99.90;;;;;;5114551;28;20489;-89
2022/01/28 01:23:07;;;;;;;0.00;0.00;;;4.30;99.90;;;;;;5114518;28;20044;-88
2022/01/28 01:25:43;;;;;;;0.00;0.00;;;4.20;99.90;;;;;;5114089;28;20059;-89
2022/01/28 01:28:11;;;;;;;0.00;0.00;;;4.20;99.90;;;;;;5114717;28;20035;-88
2022/01/28 01:30:40;;;;;;;0.00;0.00;;;4.20;99.90;;;;;;5097448;28;20096;-89
2022/01/28 01:33:06;;;;;;;0.00;0.00;;;4.10;99.90;;;;;;5114229;28;20136;-89
2022/01/28 01:35:32;;;;;;;0.00;0.00;;;4.10;99.90;;;;;;5097281;28;20102;-88
2022/01/28 01:37:59;;;;;;;0.00;0.00;;;4.10;99.90;;;;;;5113912;28;20079;-89
2022/01/28 01:40:31;;;;;;;0.00;0.00;;;4.00;99.90;;;;;;5096814;28;20056;-88
2022/01/28 01:43:11;;;;;;;0.70;0.30;;;4.00;99.90;;;;;;5097306;28;20044;-88
2022/01/28 01:54:00;;;;;;;3.40;1.55;;;3.90;99.90;;;;;;5055580;28;20056;-89
2022/01/28 01:56:27;;;;;;;0.32;0.28;;;3.90;99.90;;;;;;5039156;28;20079;-89
2022/01/28 01:58:53;;;;;;;0.00;0.00;;;4.00;99.90;;;;;;5038767;28;20060;-89
2022/01/28 02:01:19;;;;;;;0.35;0.35;;;4.10;99.90;;;;;;5055643;28;20471;-89
2022/01/28 02:03:44;;;;;;;2.28;0.65;;;4.10;99.90;;;;;;5055357;28;20127;-89
2022/01/28 02:06:11;;;;;;;0.00;0.00;;;4.20;99.90;;;;;;5055291;28;20098;-89
2022/01/28 02:08:36;;;;;;;0.00;0.00;;;4.20;99.90;;;;;;5055517;28;20060;-89
2022/01/28 02:11:02;;;;;;;0.00;0.00;;;4.20;99.90;;;;;;5055637;28;20041;-88
2022/01/28 02:13:30;;;;;;;0.00;0.00;;;4.20;99.90;;;;;;5038973;28;20049;-89
2022/01/28 02:15:57;;;;;;;0.50;0.50;;;4.20;99.90;;;;;;5055820;28;20084;-88
2022/01/28 02:18:24;;;;;;;0.00;0.00;;;4.30;99.90;;;;;;5055259;28;20080;-88
2022/01/28 02:20:53;;;;;;;0.00;0.00;;;4.30;99.90;;;;;;5038473;28;20056;-88
2022/01/28 02:23:21;;;;;;;0.57;0.00;;;4.30;99.90;;;;;;5055148;28;20131;-89
2022/01/28 02:25:47;;;;;;;0.03;0.03;;;4.40;99.90;;;;;;5094703;28;20058;-89
2022/01/28 02:28:16;;;;;;;0.65;0.13;;;4.30;99.90;;;;;;5096719;28;20055;-89
2022/01/28 02:30:42;;;;;;;0.00;0.00;;;4.30;99.90;;;;;;5113567;28;20040;-88
2022/01/28 02:33:17;;;;;;;0.43;0.22;;;4.30;99.90;;;;;;5096079;28;20062;-88
2022/01/28 02:35:43;;;;;;;0.32;0.05;;;4.40;99.90;;;;;;5113500;28;20054;-89
2022/01/28 02:38:11;;;;;;;0.30;0.30;;;4.30;99.90;;;;;;5095936;28;20059;-88
2022/01/28 02:40:39;;;;;;;0.00;0.00;;;4.30;99.90;;;;;;5096264;28;20043;-89
2022/01/28 02:46:07;;;;;;;0.00;0.00;;;4.40;99.90;;;;;;5055341;28;20064;-89
2022/01/28 02:48:35;;;;;;;0.00;0.00;;;4.50;99.90;;;;;;5055026;28;20546;-88
2022/01/28 02:51:05;;;;;;;0.35;0.35;;;4.60;99.90;;;;;;5054905;28;20103;-89
2022/01/28 02:53:57;;;;;;;0.00;0.00;;;4.60;99.90;;;;;;5055115;28;20044;-88
2022/01/28 02:56:35;;;;;;;0.00;0.00;;;4.70;99.90;;;;;;5054995;28;20058;-89
2022/01/28 02:59:01;;;;;;;0.17;0.17;;;4.70;99.90;;;;;;5055050;28;20045;-89
2022/01/28 03:01:26;;;;;;;0.10;0.10;;;4.80;99.90;;;;;;5055346;28;20472;-88
2022/01/28 03:03:55;;;;;;;1.75;0.45;;;4.80;99.90;;;;;;5054656;28;20057;-89
2022/01/28 03:06:21;;;;;;;0.00;0.00;;;4.80;99.90;;;;;;5038507;28;20079;-89
2022/01/28 03:09:02;;;;;;;0.10;0.10;;;4.70;99.90;;;;;;5054741;28;20056;-88
2022/01/28 03:11:42;;;;;;;0.00;0.00;;;4.70;99.90;;;;;;5054977;28;20052;-88
2022/01/28 03:19:25;;;;;;;0.43;0.43;;;4.40;99.90;;;;;;5054749;28;20053;-89
2022/01/28 03:21:55;;;;;;;0.75;0.75;;;4.40;99.90;;;;;;5068477;28;20055;-88
2022/01/28 03:24:25;;;;;;;0.10;0.10;;;4.30;99.90;;;;;;5095444;28;20048;-89
2022/01/28 03:26:56;;;;;;;0.00;0.00;;;4.30;99.90;;;;;;5113102;28;20117;-90
2022/01/28 03:29:21;;;;;;;1.65;0.43;;;4.20;99.90;;;;;;5095309;28;20062;-89
2022/01/28 03:31:47;;;;;;;0.05;0.05;;;4.10;99.90;;;;;;5112864;28;20403;-89
2022/01/28 03:34:13;;;;;;;0.00;0.00;;;4.10;99.90;;;;;;5112749;28;20040;-89
2022/01/28 03:36:39;;;;;;;0.65;0.30;;;4.10;99.90;;;;;;5112466;28;20415;-88
2022/01/28 03:39:07;;;;;;;0.13;0.13;;;4.10;99.90;;;;;;5116797;28;20051;-89
2022/01/28 03:41:33;;;;;;;0.22;0.17;;;4.20;99.90;;;;;;5116648;28;20157;-89
2022/01/28 03:44:00;;;;;;;0.00;0.00;;;4.20;99.90;;;;;;5116365;28;20154;-89
2022/01/28 03:46:27;;;;;;;0.00;0.00;;;4.20;99.90;;;;;;5116523;28;20055;-89
2022/01/28 03:48:55;;;;;;;0.00;0.00;;;4.20;99.90;;;;;;5099332;28;20047;-88
2022/01/28 03:51:20;;;;;;;0.17;0.17;;;4.30;99.90;;;;;;5116489;28;20123;-89
2022/01/28 03:53:46;;;;;;;1.17;0.00;;;4.30;99.90;;;;;;5116599;28;20471;-89
2022/01/28 03:56:12;;;;;;;0.10;0.10;;;4.30;99.90;;;;;;5116458;28;20035;-89
2022/01/28 03:58:38;;;;;;;0.00;0.00;;;4.30;99.90;;;;;;5116389;28;20528;-90
2022/01/28 04:01:09;;;;;;;0.80;0.45;;;4.30;99.90;;;;;;5099574;28;20039;-89
2022/01/28 04:14:10;;;;;;;0.00;0.00;;;4.20;99.90;;;;;;5115697;28;20051;-89
2022/01/28 04:19:20;;;;;;;0.00;0.00;;;4.10;99.90;;;;;;5116149;28;20043;-89
2022/01/28 04:21:46;;;;;;;0.00;0.00;;;4.10;99.90;;;;;;5099209;28;20082;-89
2022/01/28 04:24:12;;;;;;;0.00;0.00;;;4.10;99.90;;;;;;5115662;28;20097;-89
2022/01/28 04:26:38;;;;;;;0.47;0.38;;;4.10;99.90;;;;;;5115522;28;20507;-89
2022/01/28 04:29:04;;;;;;;0.00;0.00;;;4.10;99.90;;;;;;5116062;28;20143;-89
2022/01/28 04:31:30;;;;;;;0.00;0.00;;;4.10;99.90;;;;;;5115838;28;20376;-89
2022/01/28 04:33:58;;;;;;;0.00;0.00;;;4.20;99.90;;;;;;5098957;28;20035;-89
2022/01/28 04:36:27;;;;;;;6.55;0.90;;;4.20;99.90;;;;;;5098935;28;20044;-89
2022/01/28 04:39:01;;;;;;;0.00;0.00;;;4.20;99.90;;;;;;5098482;28;20134;-88
2022/01/28 04:41:53;;;;;;;0.00;0.00;;;4.20;99.90;;;;;;5098405;28;20055;-89
2022/01/28 04:44:25;;;;;;;0.00;0.00;;;4.20;99.90;;;;;;5098852;28;20088;-90
2022/01/28 04:47:04;;;;;;;0.00;0.00;;;4.30;99.90;;;;;;5115796;28;20100;-89
2022/01/28 04:49:59;;;;;;;0.75;0.10;;;4.20;99.90;;;;;;5098020;28;20552;-89
2022/01/28 04:52:52;;;;;;;0.05;0.05;;;4.30;99.90;;;;;;5114535;28;20142;-90
2022/01/28 04:55:36;;;;;;;0.00;0.00;;;4.30;99.90;;;;;;5098633;28;20095;-89
2022/01/28 05:05:59;;;;;;;0.00;0.00;;;4.40;99.90;;;;;;5115307;28;20050;-90
2022/01/28 05:10:58;;;;;;;0.00;0.00;;;4.50;99.90;;;;;;5115280;28;20048;-90
2022/01/28 05:28:42;;;;;;;0.00;0.00;;;4.50;99.90;;;;;;5114801;28;20059;-90
2022/01/28 05:31:07;;;;;;;0.38;0.30;;;4.50;99.90;;;;;;5114645;28;20529;-90
2022/01/28 05:33:33;;;;;;;0.00;0.00;;;4.40;99.90;;;;;;5114685;28;20047;-90
2022/01/28 05:35:59;;;;;;;0.43;0.43;;;4.40;99.90;;;;;;5114771;28;20097;-90
2022/01/28 05:38:24;;;;;;;0.00;0.00;;;4.40;99.90;;;;;;5114518;28;20524;-90
2022/01/28 05:40:50;;;;;;;0.10;0.10;;;4.30;99.90;;;;;;5097407;28;20047;-90
2022/01/28 05:43:16;;;;;;;2.03;0.95;;;4.30;99.90;;;;;;5097405;28;20040;-90
2022/01/28 05:45:42;;;;;;;0.00;0.00;;;4.20;99.90;;;;;;5097307;28;20044;-89
2022/01/28 05:48:07;;;;;;;0.00;0.00;;;4.20;99.90;;;;;;5114454;28;20084;-90
2022/01/28 05:50:33;;;;;;;0.08;0.08;;;4.20;99.90;;;;;;5097557;28;20043;-90
2022/01/28 05:53:00;;;;;;;0.00;0.00;;;4.40;99.90;;;;;;5114364;28;20050;-90
2022/01/28 05:55:26;;;;;;;0.00;0.00;;;4.20;99.90;;;;;;5097041;28;20146;-90
2022/01/28 05:57:52;;;;;;;0.00;0.00;;;4.20;99.90;;;;;;5097275;28;20086;-90
2022/01/28 06:00:18;;;;;;;0.10;0.10;;;4.30;99.90;;;;;;5096302;28;20070;-90
2022/01/28 06:02:45;;;;;;;0.00;0.00;;;4.30;99.90;;;;;;5096913;28;20044;-90
2022/01/28 06:05:11;;;;;;;0.00;0.00;;;4.30;99.90;;;;;;5114136;28;20126;-90
2022/01/28 06:07:41;;;;;;;0.05;0.05;;;4.30;99.90;;;;;;5097143;28;20051;-90
2022/01/28 06:10:09;;;;;;;0.28;0.28;;;4.30;99.90;;;;;;5097175;28;20050;-90
2022/01/28 06:12:43;;;;;;;0.03;0.03;;;4.30;99.90;;;;;;5097158;28;20047;-90
2022/01/28 06:15:10;;;;;;;0.00;0.00;;;4.20;99.90;;;;;;5113615;28;20461;-89
2022/01/28 06:17:35;;;;;;;3.30;0.38;;;4.20;99.90;;;;;;5114432;28;20070;-90
2022/01/28 06:20:03;;;;;;;0.15;0.15;;;4.10;99.90;;;;;;5113817;28;20039;-90
2022/01/28 06:22:29;;;;;;;0.00;0.00;;;4.10;99.90;;;;;;5113747;28;20482;-90
2022/01/28 06:24:54;;;;;;;1.02;0.90;;;4.10;99.90;;;;;;5096309;28;20072;-91
2022/01/28 06:27:22;;;;;;;0.22;0.20;;;4.10;99.90;;;;;;5113754;28;20052;-90
2022/01/28 06:29:47;;;;;;;0.00;0.00;;;4.00;99.90;;;;;;5114110;28;20540;-90
2022/01/28 06:32:13;;;;;;;0.00;0.00;;;4.10;99.90;;;;;;5096648;28;20055;-90
2022/01/28 06:34:39;;;;;;;0.00;0.00;;;4.10;99.90;;;;;;5113615;28;20098;-89
2022/01/28 06:37:05;;;;;;;0.00;0.00;;;4.20;99.90;;;;;;5096214;28;20538;-90
2022/01/28 06:39:32;;;;;;;12.95;0.20;;;4.20;99.90;;;;;;5096664;28;20051;-90
2022/01/28 06:41:59;;;;;;;1.33;0.10;;;4.30;99.90;;;;;;5113298;28;20059;-90
2022/01/28 06:44:25;;;;;;;0.47;0.47;;;4.30;99.90;;;;;;5113262;28;20047;-90
2022/01/28 06:46:52;;;;;;;0.00;0.00;;;4.30;99.90;;;;;;5113307;28;20444;-90
2022/01/28 06:49:18;;;;;;;6.43;1.00;;;4.40;99.90;;;;;;5113767;28;20479;-90
2022/01/28 06:51:43;;;;;;;0.00;0.00;;;4.40;99.90;;;;;;5096542;28;20040;-90
2022/01/28 06:54:09;;;;;;;0.00;0.00;;;4.40;99.90;;;;;;5096430;28;20042;-90
2022/01/28 06:56:35;;;;;;;0.00;0.00;;;4.40;99.90;;;;;;5096110;28;20130;-90
2022/01/28 06:59:00;;;;;;;0.00;0.00;;;4.40;99.90;;;;;;5097133;28;20142;-90
2022/01/28 07:01:26;;;;;;;0.00;0.00;;;4.40;99.90;;;;;;5113712;28;20071;-90
2022/01/28 07:03:52;;;;;;;0.45;0.45;;;4.40;99.90;;;;;;5094776;28;20052;-91
2022/01/28 07:06:18;;;;;;;0.20;0.20;;;4.30;99.90;;;;;;5111139;28;20050;-90
2022/01/28 07:08:44;;;;;;;0.00;0.00;;;4.40;99.90;;;;;;5094518;28;20090;-90
2022/01/28 07:11:10;;;;;;;0.00;0.00;;;4.30;99.90;;;;;;5093776;28;20121;-90
2022/01/28 07:13:35;;;;;;;0.00;0.00;;;4.40;99.90;;;;;;5098050;28;20097;-89
2022/01/28 07:16:01;;;;;;;0.00;0.00;;;4.30;99.90;;;;;;5097990;28;20104;-89
2022/01/28 07:18:28;;;;;;;0.50;0.38;;;4.30;99.90;;;;;;5097602;28;20142;-88
2022/01/28 07:20:54;;;;;;;0.00;0.00;;;4.30;99.90;;;;;;5115716;28;20052;-90
2022/01/28 07:23:20;;;;;;;0.80;0.10;;;4.30;99.90;;;;;;5098566;28;20108;-89
2022/01/28 07:25:46;;;;;;;0.00;0.00;;;4.20;99.90;;;;;;5098872;28;20058;-90
2022/01/28 07:28:12;;;;;;;0.00;0.00;;;4.20;99.90;;;;;;5116786;28;20059;-90
2022/01/28 07:30:38;;;;;;;0.00;0.00;;;4.10;99.90;;;;;;5117530;28;20048;-91
2022/01/28 07:33:06;;;;;;;0.10;0.10;;;4.00;99.90;;;;;;5100145;28;20050;-91
2022/01/28 07:35:33;;;;;;;0.00;0.00;;;4.00;99.90;;;;;;5117173;28;20100;-90
2022/01/28 07:37:58;;;;;;;0.00;0.00;;;3.90;99.90;;;;;;5099950;28;20079;-90
2022/01/28 07:40:24;;;;;;;0.63;0.10;;;3.90;99.90;;;;;;5116640;28;20086;-92
2022/01/28 07:42:50;;;;;;;0.00;0.00;;;3.80;99.90;;;;;;5115533;28;20038;-88
2022/01/28 07:45:15;;;;;;;0.00;0.00;;;3.80;99.90;;;;;;5097407;28;20040;-87
2022/01/28 07:47:43;;;;;;;0.00;0.00;;;3.70;99.90;;;;;;5096912;28;20057;-87
2022/01/28 07:50:10;;;;;;;0.00;0.00;;;3.70;99.90;;;;;;5096625;28;20524;-87
2022/01/28 07:52:36;;;;;;;0.00;0.00;;;3.70;99.90;;;;;;5097631;28;20433;-87
2022/01/28 07:55:04;;;;;;;0.00;0.00;;;3.70;99.90;;;;;;5114161;28;20043;-87
2022/01/28 07:57:30;;;;;;;0.00;0.00;;;3.70;99.90;;;;;;5114301;28;20092;-87
2022/01/28 07:59:56;;;;;;;0.00;0.00;;;3.70;99.90;;;;;;5094688;28;20059;-87
2022/01/28 08:02:22;;;;;;;0.00;0.00;;;3.70;99.90;;;;;;5114681;28;20386;-88
2022/01/28 08:04:47;;;;;;;0.10;0.10;;;3.70;99.90;;;;;;5097370;28;20047;-87
2022/01/28 08:07:13;;;;;;;0.00;0.00;;;3.70;99.90;;;;;;5114354;28;20036;-89
2022/01/28 08:09:39;;;;;;;0.00;0.00;;;3.70;99.90;;;;;;5114229;28;20097;-89
2022/01/28 08:12:06;;;;;;;0.00;0.00;;;3.70;99.90;;;;;;5097920;28;20043;-89
2022/01/28 08:14:32;;;;;;;0.00;0.00;;;3.80;99.90;;;;;;5097388;28;20040;-89
2022/01/28 08:17:01;;;;;;;1.08;0.50;;;3.90;99.90;;;;;;5114198;28;20070;-90
2022/01/28 08:19:26;;;;;;;2.83;0.38;;;3.80;99.90;;;;;;5097301;28;20048;-88
2022/01/28 08:21:52;;;;;;;0.05;0.05;;;3.80;99.90;;;;;;5096889;28;20059;-87
2022/01/28 08:24:18;;;;;;;0.10;0.10;;;3.90;99.90;;;;;;5113189;28;20864;-89
2022/01/28 08:26:44;;;;;;;0.00;0.00;;;3.90;99.90;;;;;;5114600;28;20047;-86
2022/01/28 08:29:09;;;;;;;0.00;0.00;;;4.00;99.90;;;;;;5115309;28;20514;-90
2022/01/28 08:31:36;;;;;;;0.00;0.00;;;4.20;99.90;;;;;;5098132;28;20101;-90
2022/01/28 08:34:03;;;;;;;0.00;0.00;;;4.30;99.90;;;;;;5099095;28;20391;-90
2022/01/28 08:36:29;;;;;;;0.00;0.00;;;4.30;99.90;;;;;;5115934;28;20406;-89
2022/01/28 08:38:56;;;;;;;0.00;0.00;;;4.30;99.90;;;;;;5098565;28;20035;-90
2022/01/28 08:41:23;;;;;;;0.00;0.00;;;4.60;99.90;;;;;;5116331;28;20060;-91
2022/01/28 08:43:49;;;;;;;0.00;0.00;;;4.50;99.90;;;;;;5115686;28;20051;-90
2022/01/28 08:46:15;;;;;;;0.00;0.00;;;4.50;99.90;;;;;;5098066;28;20036;-91
2022/01/28 08:48:40;;;;;;;0.10;0.10;;;4.60;99.90;;;;;;5099065;28;20040;-90
2022/01/28 08:51:06;;;;;;;0.13;0.13;;;4.70;99.90;;;;;;5099252;28;20054;-91
2022/01/28 08:53:32;;;;;;;0.00;0.00;;;4.70;99.90;;;;;;5098890;28;20130;-90
2022/01/28 08:55:58;;;;;;;0.05;0.05;;;6.20;99.90;;;;;;5098807;28;20115;-90
2022/01/28 08:58:24;;;;;;;0.00;0.00;;;4.90;99.90;;;;;;5099144;28;20069;-91
2022/01/28 09:00:51;;;;;;;0.00;0.00;;;5.00;99.90;;;;;;5098936;28;20050;-91
2022/01/28 09:03:18;;;;;;;0.55;0.20;;;5.10;99.90;;;;;;5116340;28;20126;-90
2022/01/28 09:05:44;;;;;;;0.00;0.00;;;5.00;99.90;;;;;;5098661;28;20055;-91
2022/01/28 09:08:11;;;;;;;0.00;0.00;;;5.50;99.90;;;;;;5115926;28;20079;-91
2022/01/28 09:10:42;;;;;;;0.00;0.00;;;5.90;99.90;;;;;;5099008;28;20051;-90
2022/01/28 09:15:39;;;;;;;0.00;0.00;;;7.10;99.90;;;;;;5115558;28;20059;-91
2022/01/28 09:18:05;;;;;;;0.40;0.30;;;7.60;99.90;;;;;;5097964;28;20043;-91
2022/01/28 09:20:33;;;;;;;0.00;0.00;;;8.30;99.90;;;;;;5115421;28;20032;-92
2022/01/28 09:23:00;;;;;;;0.52;0.10;;;9.20;99.90;;;;;;5116016;28;20039;-91
2022/01/28 09:25:26;;;;;;;0.00;0.00;;;9.90;99.90;;;;;;5097721;28;20048;-92
2022/01/28 09:27:53;;;;;;;0.82;0.65;;;10.40;99.90;;;;;;5114891;28;20111;-92
2022/01/28 09:30:18;;;;;;;0.00;0.00;;;11.00;99.60;;;;;;5115167;28;20050;-92
2022/01/28 09:32:45;;;;;;;0.93;0.93;;;11.40;98.00;;;;;;5114209;28;20043;-92
2022/01/28 09:35:10;;;;;;;0.35;0.35;;;11.80;95.20;;;;;;5097498;28;20044;-92
2022/01/28 09:37:36;;;;;;;0.63;0.45;;;12.20;98.00;;;;;;5095126;28;20039;-93
2022/01/28 09:40:04;;;;;;;0.00;0.00;;;12.30;94.80;;;;;;5113150;28;20039;-92
2022/01/28 09:42:34;;;;;;;0.00;0.00;;;12.50;90.90;;;;;;5097413;28;20418;-91
2022/01/28 09:45:03;;;;;;;3.10;0.45;;;12.80;90.80;;;;;;5112878;28;20482;-92
2022/01/28 09:47:30;;;;;;;0.98;0.63;;;13.00;85.70;;;;;;5096132;28;20505;-91
2022/01/28 09:49:56;;;;;;;0.70;0.20;;;13.20;80.50;;;;;;5085875;28;20098;-92
2022/01/28 09:52:22;;;;;;;0.00;0.00;;;13.40;85.40;;;;;;5094190;28;20044;-92
2022/01/28 09:54:48;;;;;;;0.00;0.00;;;13.50;83.40;;;;;;5094042;28;20193;-92
2022/01/28 09:57:19;;;;;;;0.25;0.25;;;13.50;78.50;;;;;;5093802;28;20196;-92
2022/01/28 09:59:45;;;;;;;0.30;0.30;;;13.50;86.70;;;;;;5090254;28;20051;-91
2022/01/28 10:02:11;;;;;;;0.40;0.28;;;12.90;82.10;;;;;;5096294;28;20043;-92
2022/01/28 10:04:37;;;;;;;0.10;0.10;;;12.40;81.80;;;;;;5097779;28;20047;-92
2022/01/28 10:07:16;;;;;;;5.72;1.27;;;11.50;88.00;;;;;;5097707;28;20112;-92
2022/01/28 10:10:00;;;;;;;0.57;0.30;;;10.40;91.40;;;;;;5114372;28;20067;-91
2022/01/28 10:12:51;;;;;;;1.15;0.85;;;10.00;95.20;;;;;;5096623;28;20175;-91
2022/01/28 10:15:28;;;;;;;0.60;0.60;;;9.30;97.20;;;;;;5114107;28;20059;-93
2022/01/28 10:17:56;;;;;;;9.63;1.35;;;9.00;99.40;;;;;;5097317;28;20062;-92
2022/01/28 10:20:24;;;;;;;0.00;0.00;;;8.80;99.90;;;;;;5097352;28;20188;-92
2022/01/28 10:22:58;;;;;;;0.43;0.40;;;8.80;99.90;;;;;;5097365;28;20448;-91
2022/01/28 10:25:34;;;;;;;0.30;0.30;;;8.70;99.90;;;;;;5097073;28;20051;-89
2022/01/28 10:28:06;;;;;;;0.22;0.22;;;8.40;99.90;;;;;;5096873;28;20180;-89
2022/01/28 10:30:36;;;;;;;1.10;0.35;;;8.30;99.90;;;;;;5114578;28;20044;-92
2022/01/28 10:33:17;;;;;;;0.75;0.30;;;8.30;99.90;;;;;;5114329;28;20081;-92
2022/01/28 10:35:58;;;;;;;0.00;0.00;;;8.10;99.90;;;;;;5097106;28;20039;-92
2022/01/28 10:38:35;;;;;;;0.00;0.00;;;8.00;99.90;;;;;;5097428;28;20134;-92
2022/01/28 10:41:08;;;;;;;0.00;0.00;;;7.90;99.90;;;;;;5114902;28;20039;-92
2022/01/28 10:43:43;;;;;;;0.00;0.00;;;8.30;99.90;;;;;;5114021;28;20039;-92
2022/01/28 10:46:09;;;;;;;;;;;9.00;99.90;;;;;;5114309;28;20483;-93
2022/01/28 10:48:58;;;;;;;7.53;1.88;;;9.80;99.90;;;;;;5096836;28;19966;-92
2022/01/28 10:51:45;;;;;;;0.43;0.22;;;10.30;99.90;;;;;;5097555;28;20040;-92
2022/01/28 10:54:22;;;;;;;1.00;0.20;;;10.30;99.90;;;;;;5113613;28;20499;-91
2022/01/28 10:56:59;;;;;;;2.78;0.00;;;10.40;98.90;;;;;;5097192;28;20069;-92
2022/01/28 10:59:28;;;;;;;2.28;1.38;;;10.70;97.60;;;;;;5096938;28;20057;-92
2022/01/28 11:01:55;;;;;;;0.10;0.10;;;10.70;96.70;;;;;;5097063;28;20055;-92
2022/01/28 11:04:21;;;;;;;0.25;0.25;;;10.70;96.60;;;;;;5096792;28;20043;-92
2022/01/28 11:06:49;;;;;;;2.28;0.10;;;10.70;97.70;;;;;;5096762;28;20052;-92
2022/01/28 11:09:17;;;;;;;2.50;0.10;;;11.00;99.00;;;;;;5097098;28;20141;-91
2022/01/28 11:11:44;;;;;;;8.10;2.28;;;11.50;97.10;;;;;;5113513;28;20055;-92
2022/01/28 11:14:10;;;;;;;0.40;0.25;;;12.00;93.70;;;;;;5096513;28;20048;-92
2022/01/28 11:16:37;;;;;;;0.00;0.00;;;12.50;90.20;;;;;;5113640;28;20040;-92
2022/01/28 11:19:05;;;;;;;2.72;0.15;;;12.50;90.30;;;;;;5096733;28;20048;-93
2022/01/28 11:22:03;;;;;;;1.25;0.80;;;12.30;92.20;;;;;;5113181;28;20472;-88
2022/01/28 11:24:37;;;;;;;8.32;1.73;;;11.80;90.10;;;;;;5095855;28;20384;-89
2022/01/28 11:27:31;;;;;;;0.00;0.00;;;11.30;90.70;;;;;;5096089;28;20065;-88
2022/01/28 11:30:29;;;;;;;0.00;0.00;;;10.90;93.80;;;;;;5113109;28;20043;-89
2022/01/28 11:33:07;;;;;;;0.52;0.43;;;10.80;96.20;;;;;;4998586;28;20120;-89
2022/01/28 11:35:39;;;;;;;0.25;0.25;;;10.80;97.20;;;;;;4998661;28;20053;-89
2022/01/28 11:38:28;;;;;;;1.08;0.55;;;10.60;96.30;;;;;;4998608;28;20151;-89
2022/01/28 11:40:58;;;;;;;0.00;0.00;;;10.50;98.00;;;;;;5014301;28;20073;-88
2022/01/28 11:43:26;;;;;;;0.00;0.00;;;10.30;97.60;;;;;;5014945;28;20061;-88
2022/01/28 11:46:05;;;;;;;0.00;0.00;;;10.20;99.10;;;;;;5014611;28;20049;-87
2022/01/28 11:48:51;;;;;;;1.52;0.93;;;10.30;98.60;;;;;;4998157;28;20544;-89
2022/01/28 11:51:20;;;;;;;7.68;1.63;;;10.80;99.50;;;;;;4998099;28;20097;-89
2022/01/28 11:53:57;;;;;;;0.00;0.00;;;11.60;98.20;;;;;;5014838;28;20505;-87
2022/01/28 11:56:26;;;;;;;0.90;0.30;;;12.00;93.70;;;;;;5014871;28;20057;-89
2022/01/28 11:58:58;;;;;;;3.42;1.17;;;11.70;91.00;;;;;;4999074;28;20107;-89
2022/01/28 12:01:39;;;;;;;0.00;0.00;;;11.20;91.20;;;;;;5002210;28;20076;-89
2022/01/28 12:04:23;;;;;;;0.43;0.30;;;10.60;92.20;;;;;;5000890;28;20046;-89
2022/01/28 12:07:00;;;;;;;0.00;0.00;;;10.20;92.00;;;;;;5018350;28;20088;-89
2022/01/28 12:09:27;;;;;;;0.35;0.28;;;9.90;94.40;;;;;;5087653;28;20051;-89
2022/01/28 12:11:53;;;;;;;0.28;0.28;;;9.70;97.70;;;;;;5116145;28;20048;-89
2022/01/28 12:15:22;;;;;;;0.00;0.00;;;9.70;96.80;;;;;;5115755;28;20050;-88
2022/01/28 12:17:48;;;;;;;0.20;0.20;;;9.70;97.00;;;;;;5115126;28;20050;-89
2022/01/28 12:20:14;;;;;;;1.17;1.13;;;10.00;98.60;;;;;;5098837;28;20057;-88
2022/01/28 12:22:59;;;;;;;0.00;0.00;;;10.80;96.00;;;;;;5098844;28;20479;-88
2022/01/28 12:25:43;;;;;;;7.50;1.30;;;11.00;95.20;;;;;;5115088;28;20529;-87
2022/01/28 12:28:21;;;;;;;0.00;0.00;;;11.60;91.70;;;;;;5098879;28;20048;-87
2022/01/28 12:31:25;;;;;;;0.20;0.20;;;12.00;89.80;;;;;;5098684;28;20046;-87
2022/01/28 12:33:57;;;;;;;0.00;0.00;;;12.20;87.10;;;;;;5001165;28;20081;-88
2022/01/28 12:36:34;;;;;;;0.60;0.60;;;12.00;81.70;;;;;;5001141;28;20493;-88
2022/01/28 12:39:13;;;;;;;0.00;0.00;;;11.60;84.10;;;;;;5000876;28;20053;-88
2022/01/28 12:41:52;;;;;;;1.30;0.20;;;11.80;87.50;;;;;;5001213;28;20429;-88
2022/01/28 12:44:19;;;;;;;0.00;0.00;;;12.00;87.00;;;;;;5000846;28;20413;-88
2022/01/28 12:46:51;;;;;;;1.55;0.52;;;12.00;84.10;;;;;;5017125;28;20505;-87
2022/01/28 12:49:25;;;;;;;0.00;0.00;;;12.20;84.00;;;;;;5017205;28;20045;-88
2022/01/28 12:51:55;;;;;;;0.00;0.00;;;12.20;81.60;;;;;;5001227;28;20083;-88
2022/01/28 12:54:43;;;;;;;0.00;0.00;;;12.50;81.10;;;;;;5017148;28;20053;-89
2022/01/28 12:57:11;;;;;;;0.10;0.00;;;12.40;88.50;;;;;;4999940;28;20111;-88
2022/01/28 12:59:39;;;;;;;0.00;0.00;;;12.40;81.70;;;;;;5000836;28;20087;-88
2022/01/28 13:02:04;;;;;;;0.00;0.00;;;12.30;81.70;;;;;;5000561;28;20057;-88
2022/01/28 13:04:50;;;;;;;0.10;0.10;;;12.30;82.30;;;;;;5044632;28;20043;-89
2022/01/28 13:09:57;;;;;;;4.80;0.35;;;11.90;79.70;;;;;;5114760;28;19919;-89
2022/01/28 13:12:26;;;;;;;0.90;0.77;;;11.40;79.70;;;;;;5097865;28;20075;-89
2022/01/28 13:14:53;;;;;;;0.00;0.00;;;11.10;83.20;;;;;;5098018;28;20047;-89
2022/01/28 13:17:23;;;;;;;2.30;1.00;;;10.90;87.30;;;;;;5097711;28;20047;-89
2022/01/28 13:20:01;;;;;;;2.55;0.25;;;10.80;88.10;;;;;;5114399;28;20048;-88
2022/01/28 13:22:28;;;;;;;0.20;0.20;;;10.40;90.70;;;;;;5114680;28;20039;-89
2022/01/28 13:24:56;;;;;;;0.00;0.00;;;10.20;93.80;;;;;;5097097;28;20063;-89
2022/01/28 13:27:37;;;;;;;0.20;0.20;;;10.20;94.20;;;;;;5097569;28;20047;-89
2022/01/28 13:30:12;;;;;;;0.00;0.00;;;10.20;95.60;;;;;;5114616;28;20075;-89
2022/01/28 13:32:41;;;;;;;0.00;0.00;;;10.30;96.20;;;;;;5114546;28;20063;-89
2022/01/28 13:35:15;;;;;;;0.08;0.08;;;10.30;96.10;;;;;;5114578;28;20044;-89
2022/01/28 13:37:41;;;;;;;0.13;0.13;;;10.30;97.30;;;;;;5097470;28;20047;-89
2022/01/28 13:40:17;;;;;;;0.75;0.35;;;10.40;97.70;;;;;;5097476;28;20051;-89
2022/01/28 13:43:02;;;;;;;0.00;0.00;;;10.20;97.70;;;;;;5097189;28;20394;-88
2022/01/28 13:45:47;;;;;;;0.00;0.00;;;9.90;98.30;;;;;;5097549;28;20053;-88
2022/01/28 13:48:36;;;;;;;0.20;0.10;;;9.80;99.90;;;;;;5097171;28;20044;-88
2022/01/28 13:51:15;;;;;;;1.08;0.75;;;9.60;98.80;;;;;;5113957;28;20075;-89
2022/01/28 13:56:45;;;;;;;1.35;0.22;;;9.50;99.90;;;;;;5114011;28;20047;-88
2022/01/28 13:59:12;;;;;;;0.05;0.00;;;9.50;99.90;;;;;;5096918;28;20054;-88
2022/01/28 14:01:38;;;;;;;5.65;0.90;;;9.50;99.90;;;;;;5113464;28;20079;-88
2022/01/28 14:04:04;;;;;;;0.00;0.00;;;9.60;99.90;;;;;;5096914;28;20069;-89
2022/01/28 14:06:32;;;;;;;0.50;0.40;;;9.60;99.90;;;;;;5096038;28;20062;-89
2022/01/28 14:09:05;;;;;;;0.77;0.30;;;9.70;99.90;;;;;;5096486;28;20043;-88
2022/01/28 14:11:40;;;;;;;0.00;0.00;;;9.60;99.90;;;;;;5113463;28;20123;-88
2022/01/28 14:14:12;;;;;;;0.00;0.00;;;9.60;99.90;;;;;;5096658;28;20039;-89
2022/01/28 14:16:38;;;;;;;1.65;0.30;;;9.50;99.90;;;;;;5097107;28;20078;-88
2022/01/28 14:19:04;;;;;;;0.00;0.00;;;9.40;99.90;;;;;;5096507;28;20048;-88
2022/01/28 14:21:30;;;;;;;0.00;0.00;;;9.30;99.90;;;;;;5096061;28;20047;-88
2022/01/28 14:23:56;;;;;;;0.00;0.00;;;9.20;99.90;;;;;;5113313;28;20046;-89
2022/01/28 14:26:22;;;;;;;0.00;0.00;;;9.20;99.90;;;;;;5096655;28;20047;-89
2022/01/28 14:31:23;;;;;;;0.00;0.00;;;8.90;99.90;;;;;;5113279;28;20097;-89
2022/01/28 14:33:49;;;;;;;0.40;0.35;;;8.80;99.90;;;;;;5113360;28;20047;-88
2022/01/28 14:36:16;;;;;;;0.00;0.00;;;8.80;99.90;;;;;;5096299;28;20039;-88
2022/01/28 14:38:45;;;;;;;0.00;0.00;;;8.70;99.90;;;;;;5095610;28;20070;-89
2022/01/28 14:41:14;;;;;;;0.00;0.00;;;8.70;99.90;;;;;;5113185;28;20043;-88
2022/01/28 14:43:40;;;;;;;0.00;0.00;;;8.60;99.90;;;;;;5096279;28;20083;-89
2022/01/28 14:46:06;;;;;;;0.00;0.00;;;8.80;99.90;;;;;;5096812;28;20043;-89
2022/01/28 14:48:32;;;;;;;0.00;0.00;;;8.60;99.90;;;;;;5096361;28;20063;-89